Time;durP1;ratioP1;P1;durP2;ratioP2;P2;SDS_P1;SDS_P2;PMS_P1;PMS_P2;Temp;Humidity;BMP_temperature;BMP_pressure;BME280_temperature;BME280_humidity;BME280_pressure;Samples;Min_cycle;Max_cycle;Signal;HPM_P1;HPM_P2
2023/12/11 00:01:44;;;;;;;10.95;2.53;;;13.00;99.90;;;;;;4248603;27;20062;-67
2023/12/11 00:03:46;;;;;;;9.48;2.70;;;12.90;99.90;;;;;;4248176;27;20467;-67
2023/12/11 00:05:49;;;;;;;9.55;2.38;;;12.90;99.90;;;;;;4248115;27;20047;-67
2023/12/11 00:07:51;;;;;;;10.60;2.85;;;12.90;99.90;;;;;;4248388;27;20047;-67
2023/12/11 00:09:53;;;;;;;11.38;2.78;;;12.90;99.90;;;;;;4248315;27;20067;-66
2023/12/11 00:11:57;;;;;;;13.25;2.65;;;12.80;99.90;;;;;;4248459;27;20122;-67
2023/12/11 00:13:59;;;;;;;11.15;3.03;;;12.80;99.90;;;;;;4248333;27;20478;-66
2023/12/11 00:16:03;;;;;;;10.20;2.75;;;12.80;99.90;;;;;;4247971;27;20039;-67
2023/12/11 00:18:05;;;;;;;10.18;2.88;;;12.80;99.90;;;;;;4248046;27;20409;-67
2023/12/11 00:20:09;;;;;;;11.90;2.38;;;12.80;99.90;;;;;;4247602;27;20051;-66
2023/12/11 00:22:11;;;;;;;14.85;2.78;;;12.80;99.90;;;;;;4247783;27;20139;-66
2023/12/11 00:24:13;;;;;;;11.52;3.10;;;12.70;99.90;;;;;;4248007;27;20486;-66
2023/12/11 00:26:16;;;;;;;13.20;3.00;;;12.70;99.90;;;;;;4247776;27;20043;-66
2023/12/11 00:28:18;;;;;;;12.65;3.33;;;12.70;99.90;;;;;;4247972;27;20047;-67
2023/12/11 00:30:20;;;;;;;15.07;2.83;;;12.60;99.90;;;;;;4247832;27;20054;-66
2023/12/11 00:32:23;;;;;;;12.57;2.97;;;12.60;99.90;;;;;;4247843;27;20047;-66
2023/12/11 00:34:25;;;;;;;13.25;3.03;;;12.60;99.90;;;;;;4247823;27;20043;-66
2023/12/11 00:36:28;;;;;;;13.82;3.08;;;12.60;99.90;;;;;;4247789;27;20051;-67
2023/12/11 00:38:30;;;;;;;15.05;3.92;;;12.60;99.90;;;;;;4248033;27;20076;-66
2023/12/11 00:40:32;;;;;;;17.15;3.38;;;12.60;99.90;;;;;;4247706;27;20043;-66
2023/12/11 00:42:34;;;;;;;16.70;3.80;;;12.60;99.90;;;;;;4247781;27;20127;-66
2023/12/11 00:44:39;;;;;;;18.92;3.65;;;12.60;99.90;;;;;;4247100;27;20430;-66
2023/12/11 00:46:41;;;;;;;20.02;3.95;;;12.60;99.90;;;;;;4229489;28;20051;-66
2023/12/11 00:48:44;;;;;;;19.05;3.53;;;12.50;99.90;;;;;;4247568;27;20040;-66
2023/12/11 00:50:47;;;;;;;16.33;3.97;;;12.60;99.90;;;;;;4247115;27;20061;-65
2023/12/11 00:52:49;;;;;;;21.00;4.15;;;12.50;99.90;;;;;;4229364;28;20043;-66
2023/12/11 00:54:51;;;;;;;14.88;3.50;;;12.50;99.90;;;;;;4247743;27;20043;-66
2023/12/11 00:56:53;;;;;;;18.92;4.13;;;12.50;99.90;;;;;;4247592;27;20108;-67
2023/12/11 00:58:55;;;;;;;17.52;4.28;;;12.60;99.90;;;;;;4247578;27;20058;-67
2023/12/11 01:00:57;;;;;;;21.55;4.05;;;12.50;99.90;;;;;;4247546;27;20044;-67
2023/12/11 01:03:00;;;;;;;20.08;4.03;;;12.50;99.90;;;;;;4229255;28;20122;-66
2023/12/11 01:05:04;;;;;;;21.20;4.57;;;12.50;99.90;;;;;;4247096;27;20055;-66
2023/12/11 01:07:06;;;;;;;15.80;4.03;;;12.50;99.90;;;;;;4247195;27;20141;-67
2023/12/11 01:09:09;;;;;;;22.67;4.93;;;12.50;99.90;;;;;;4247472;28;20945;-66
2023/12/11 01:11:11;;;;;;;18.00;4.28;;;12.40;99.90;;;;;;4247335;28;20047;-67
2023/12/11 01:13:13;;;;;;;21.27;4.15;;;12.40;99.90;;;;;;4247181;28;20040;-67
2023/12/11 01:15:15;;;;;;;21.17;3.95;;;12.40;99.90;;;;;;4247497;28;20049;-67
2023/12/11 01:17:17;;;;;;;26.73;5.20;;;12.40;99.90;;;;;;4247434;28;20055;-66
2023/12/11 01:19:41;;;;;;;20.73;4.45;;;12.40;99.90;;;;;;4247182;28;20153;-66
2023/12/11 01:21:45;;;;;;;20.27;4.75;;;12.40;99.90;;;;;;4247267;28;20055;-66
2023/12/11 01:23:47;;;;;;;20.83;5.05;;;12.40;99.90;;;;;;4247466;28;20571;-66
2023/12/11 01:25:49;;;;;;;24.92;5.03;;;12.40;99.90;;;;;;4247188;28;20053;-66
2023/12/11 01:27:51;;;;;;;21.02;4.10;;;12.40;99.90;;;;;;4247259;28;20455;-67
2023/12/11 01:29:54;;;;;;;18.48;4.10;;;12.40;99.90;;;;;;4247264;28;20039;-66
2023/12/11 01:31:57;;;;;;;18.85;4.60;;;12.40;99.90;;;;;;4247276;28;20467;-66
2023/12/11 01:33:59;;;;;;;20.50;4.32;;;12.40;99.90;;;;;;4246913;28;20055;-66
2023/12/11 01:36:01;;;;;;;22.00;4.30;;;12.40;99.90;;;;;;4247101;28;20043;-66
2023/12/11 01:38:04;;;;;;;25.85;5.05;;;12.50;99.90;;;;;;4247080;28;20296;-66
2023/12/11 01:40:09;;;;;;;14.07;3.38;;;12.30;99.90;;;;;;4228924;28;20047;-66
2023/12/11 01:42:11;;;;;;;22.33;4.13;;;12.40;99.90;;;;;;4247468;28;20123;-66
2023/12/11 01:44:13;;;;;;;22.08;4.70;;;12.40;99.90;;;;;;4247276;28;20066;-66
2023/12/11 01:46:18;;;;;;;23.02;4.95;;;12.30;99.90;;;;;;4246910;28;20457;-66
2023/12/11 01:48:20;;;;;;;28.05;4.90;;;12.40;99.90;;;;;;4246759;28;20047;-66
2023/12/11 01:50:22;;;;;;;20.80;4.47;;;12.40;99.90;;;;;;4246890;28;20035;-66
2023/12/11 01:52:25;;;;;;;24.15;4.65;;;12.40;99.90;;;;;;4246979;28;20152;-67
2023/12/11 01:54:29;;;;;;;21.55;4.78;;;12.40;99.90;;;;;;4247156;28;20067;-67
2023/12/11 01:56:31;;;;;;;27.30;4.85;;;12.50;99.90;;;;;;4246951;27;20047;-66
2023/12/11 01:58:34;;;;;;;25.38;4.90;;;12.60;99.90;;;;;;4249969;27;20055;-66
2023/12/11 02:00:36;;;;;;;18.40;4.47;;;12.60;99.90;;;;;;4250374;27;20055;-66
2023/12/11 02:02:39;;;;;;;20.90;5.18;;;12.50;99.90;;;;;;4250009;27;20409;-67
2023/12/11 02:04:41;;;;;;;18.25;4.35;;;12.50;99.90;;;;;;4250079;27;20459;-66
2023/12/11 02:06:43;;;;;;;17.55;4.15;;;12.50;99.90;;;;;;4250407;27;20104;-67
2023/12/11 02:08:46;;;;;;;20.73;5.55;;;12.50;99.90;;;;;;4250348;27;20043;-67
2023/12/11 02:10:49;;;;;;;23.60;5.07;;;12.50;99.90;;;;;;4250061;27;20138;-67
2023/12/11 02:12:52;;;;;;;22.83;4.70;;;12.50;99.90;;;;;;4250855;27;20488;-67
2023/12/11 02:14:54;;;;;;;24.77;4.82;;;12.50;99.90;;;;;;4251693;27;20059;-67
2023/12/11 02:16:56;;;;;;;23.88;5.00;;;12.50;99.90;;;;;;4249893;27;20054;-67
2023/12/11 02:18:58;;;;;;;19.90;4.20;;;12.50;99.90;;;;;;4250275;27;20066;-67
2023/12/11 02:21:00;;;;;;;25.88;4.80;;;12.60;99.90;;;;;;4249626;27;20487;-67
2023/12/11 02:23:06;;;;;;;24.88;4.82;;;12.50;99.90;;;;;;4250052;27;20050;-66
2023/12/11 02:25:09;;;;;;;23.60;5.30;;;12.50;99.90;;;;;;4250162;27;20573;-68
2023/12/11 02:27:12;;;;;;;21.48;5.30;;;12.50;99.90;;;;;;4250777;27;20050;-67
2023/12/11 02:29:14;;;;;;;28.33;6.22;;;12.50;99.90;;;;;;4250529;27;20050;-69
2023/12/11 02:31:17;;;;;;;20.25;4.68;;;12.50;99.90;;;;;;4249813;27;20055;-66
2023/12/11 02:33:19;;;;;;;23.55;4.90;;;12.50;99.90;;;;;;4249928;27;20043;-66
2023/12/11 02:35:21;;;;;;;26.38;5.00;;;12.50;99.90;;;;;;4249874;27;20088;-67
2023/12/11 02:37:23;;;;;;;26.48;5.32;;;12.50;99.90;;;;;;4249726;27;20043;-66
2023/12/11 02:39:25;;;;;;;28.13;5.43;;;12.50;99.90;;;;;;4249763;27;20054;-67
2023/12/11 02:41:27;;;;;;;23.20;4.82;;;12.50;99.90;;;;;;4249845;27;20054;-67
2023/12/11 02:43:31;;;;;;;26.13;5.60;;;12.60;99.90;;;;;;4249401;27;20051;-67
2023/12/11 02:45:33;;;;;;;25.88;5.15;;;12.50;99.90;;;;;;4249279;27;20055;-67
2023/12/11 02:47:35;;;;;;;24.15;5.10;;;12.50;99.90;;;;;;4249783;27;20043;-67
2023/12/11 02:49:37;;;;;;;25.83;5.63;;;12.50;99.90;;;;;;4249823;27;20499;-67
2023/12/11 02:51:39;;;;;;;19.48;4.53;;;12.50;99.90;;;;;;4249543;27;20135;-67
2023/12/11 02:53:42;;;;;;;23.80;5.30;;;12.50;99.90;;;;;;4249333;27;20092;-66
2023/12/11 02:55:44;;;;;;;26.17;5.57;;;12.50;99.90;;;;;;4249557;27;20039;-67
2023/12/11 02:57:46;;;;;;;26.30;5.15;;;12.60;99.90;;;;;;4231235;28;20452;-67
2023/12/11 02:59:49;;;;;;;20.55;5.18;;;12.50;99.90;;;;;;4249007;27;20537;-66
2023/12/11 03:01:52;;;;;;;24.07;5.27;;;12.50;99.90;;;;;;4249517;27;20056;-66
2023/12/11 03:03:54;;;;;;;19.88;4.70;;;12.50;99.90;;;;;;4231042;28;20036;-66
2023/12/11 03:05:58;;;;;;;29.67;5.18;;;12.60;99.90;;;;;;4249279;27;20053;-66
2023/12/11 03:08:02;;;;;;;23.17;5.75;;;12.50;99.90;;;;;;4248561;27;20216;-67
2023/12/11 03:10:05;;;;;;;21.35;5.30;;;12.60;99.90;;;;;;4249269;27;20043;-66
2023/12/11 03:12:07;;;;;;;29.95;5.82;;;12.60;99.90;;;;;;4249068;27;20048;-66
2023/12/11 03:14:09;;;;;;;24.30;5.93;;;12.60;99.90;;;;;;4248704;27;20046;-69
2023/12/11 03:16:15;;;;;;;26.13;4.82;;;12.60;99.90;;;;;;4249162;27;20047;-67
2023/12/11 03:18:17;;;;;;;27.73;5.40;;;12.60;99.90;;;;;;4249159;27;20454;-66
2023/12/11 03:20:20;;;;;;;27.75;5.82;;;12.60;99.90;;;;;;4248850;27;20043;-66
2023/12/11 03:22:25;;;;;;;33.75;6.57;;;12.60;99.90;;;;;;4248723;27;20765;-66
2023/12/11 03:24:27;;;;;;;27.33;5.88;;;12.60;99.90;;;;;;4249015;27;20620;-66
2023/12/11 03:26:29;;;;;;;28.52;5.57;;;12.60;99.90;;;;;;4248840;27;20046;-67
2023/12/11 03:28:31;;;;;;;30.38;5.82;;;12.60;99.90;;;;;;4248629;27;20051;-66
2023/12/11 03:30:33;;;;;;;23.83;5.38;;;12.60;99.90;;;;;;4248641;27;20054;-66
2023/12/11 03:32:37;;;;;;;23.58;4.80;;;12.60;99.90;;;;;;4248943;27;20047;-66
2023/12/11 03:34:39;;;;;;;24.67;5.70;;;12.70;99.90;;;;;;4248680;27;20043;-66
2023/12/11 03:36:41;;;;;;;19.17;4.68;;;12.70;99.90;;;;;;4248633;27;20092;-66
2023/12/11 03:38:43;;;;;;;33.00;5.30;;;12.70;99.90;;;;;;4248751;27;20086;-67
2023/12/11 03:40:45;;;;;;;23.45;5.60;;;12.70;99.90;;;;;;4230490;28;20056;-67
2023/12/11 03:42:47;;;;;;;25.60;5.97;;;12.70;99.90;;;;;;4248665;27;20051;-66
2023/12/11 03:44:50;;;;;;;28.25;6.13;;;12.80;99.90;;;;;;4248199;27;20039;-66
2023/12/11 03:46:52;;;;;;;27.73;5.57;;;12.70;99.90;;;;;;4248319;27;20057;-67
2023/12/11 03:48:55;;;;;;;29.92;6.80;;;12.80;99.90;;;;;;4230358;28;20176;-66
2023/12/11 03:50:58;;;;;;;35.72;5.63;;;12.70;99.90;;;;;;4248378;27;20070;-66
2023/12/11 03:53:00;;;;;;;29.00;5.93;;;12.70;99.90;;;;;;4248377;27;20047;-66
2023/12/11 03:55:02;;;;;;;23.48;4.78;;;12.80;99.90;;;;;;4248348;27;20058;-66
2023/12/11 03:57:04;;;;;;;29.67;6.53;;;12.70;99.90;;;;;;4248270;27;20043;-66
2023/12/11 03:59:07;;;;;;;28.35;6.22;;;12.70;99.90;;;;;;4247860;27;20043;-66
2023/12/11 04:01:09;;;;;;;28.10;6.18;;;12.80;99.90;;;;;;4230425;28;20520;-66
2023/12/11 04:03:12;;;;;;;35.72;6.57;;;12.80;99.90;;;;;;4249268;27;20121;-68
2023/12/11 04:05:15;;;;;;;26.60;5.28;;;12.80;99.90;;;;;;4249798;27;20047;-70
2023/12/11 04:07:17;;;;;;;25.90;5.38;;;12.80;99.90;;;;;;4231661;28;20062;-68
2023/12/11 04:09:19;;;;;;;27.17;5.68;;;12.70;99.90;;;;;;4248623;27;20481;-67
2023/12/11 04:11:21;;;;;;;25.60;5.35;;;12.70;99.90;;;;;;4248362;27;20067;-66
2023/12/11 04:13:23;;;;;;;33.85;6.10;;;12.80;99.90;;;;;;4247979;27;20126;-66
2023/12/11 04:15:25;;;;;;;38.05;7.15;;;12.80;99.90;;;;;;4248146;27;20043;-66
2023/12/11 04:17:27;;;;;;;25.63;5.03;;;12.80;99.90;;;;;;4248247;27;20078;-66
2023/12/11 04:19:30;;;;;;;28.55;5.85;;;12.80;99.90;;;;;;4247575;27;20492;-65
2023/12/11 04:21:34;;;;;;;27.48;6.50;;;12.80;99.90;;;;;;4229596;28;20059;-66
2023/12/11 04:23:36;;;;;;;27.58;5.45;;;12.80;99.90;;;;;;4248217;27;20070;-66
2023/12/11 04:25:38;;;;;;;26.60;6.57;;;12.90;99.90;;;;;;4248291;27;20117;-65
2023/12/11 04:27:40;;;;;;;22.80;6.05;;;12.90;99.90;;;;;;4229223;28;20050;-67
2023/12/11 04:29:43;;;;;;;21.55;5.72;;;12.90;99.90;;;;;;4247792;27;20047;-67
2023/12/11 04:31:45;;;;;;;30.58;6.30;;;12.90;99.90;;;;;;4249294;27;20047;-67
2023/12/11 04:33:47;;;;;;;28.02;5.78;;;12.90;99.90;;;;;;4230668;28;20462;-68
2023/12/11 04:35:49;;;;;;;33.28;5.72;;;12.90;99.90;;;;;;4248129;27;20134;-68
2023/12/11 04:37:53;;;;;;;27.05;6.53;;;12.90;99.90;;;;;;4229473;28;20522;-66
2023/12/11 04:39:55;;;;;;;26.58;5.82;;;12.90;99.90;;;;;;4248008;27;20051;-66
2023/12/11 04:41:57;;;;;;;30.38;5.97;;;12.80;99.90;;;;;;4247654;27;20047;-67
2023/12/11 04:43:59;;;;;;;27.00;6.10;;;12.90;99.90;;;;;;4247827;27;20067;-67
2023/12/11 04:46:01;;;;;;;34.20;7.70;;;12.90;99.90;;;;;;4247573;27;20046;-65
2023/12/11 04:48:04;;;;;;;30.98;6.60;;;12.90;99.90;;;;;;4247483;27;20409;-66
2023/12/11 04:50:07;;;;;;;26.95;6.05;;;12.90;99.90;;;;;;4247438;27;20073;-67
2023/12/11 04:52:09;;;;;;;27.75;5.60;;;12.90;99.90;;;;;;4247682;27;20047;-66
2023/12/11 04:54:13;;;;;;;26.38;5.80;;;13.00;99.90;;;;;;4247783;27;20076;-66
2023/12/11 04:56:15;;;;;;;28.05;6.53;;;13.00;99.90;;;;;;4229112;28;20566;-66
2023/12/11 04:58:17;;;;;;;38.63;7.05;;;13.00;99.90;;;;;;4247588;27;20481;-66
2023/12/11 05:00:20;;;;;;;28.58;6.40;;;13.00;99.90;;;;;;4247621;27;20047;-66
2023/12/11 05:02:22;;;;;;;26.27;6.15;;;13.00;99.90;;;;;;4247686;27;20054;-66
2023/12/11 05:04:24;;;;;;;28.67;7.32;;;13.00;99.90;;;;;;4247358;27;20043;-66
2023/12/11 05:06:26;;;;;;;27.33;6.43;;;13.00;99.90;;;;;;4247304;27;20482;-66
2023/12/11 05:08:28;;;;;;;26.83;6.65;;;13.00;99.90;;;;;;4247392;27;20126;-66
2023/12/11 05:10:34;;;;;;;27.48;6.13;;;13.00;99.90;;;;;;4247167;27;20142;-67
2023/12/11 05:12:36;;;;;;;27.35;6.05;;;13.00;99.90;;;;;;4247560;28;20130;-66
2023/12/11 05:14:38;;;;;;;24.88;5.70;;;13.00;99.90;;;;;;4247646;28;20069;-66
2023/12/11 05:16:40;;;;;;;33.17;7.18;;;13.00;99.90;;;;;;4247488;28;20053;-67
2023/12/11 05:18:42;;;;;;;35.67;7.00;;;13.10;99.90;;;;;;4247520;28;20125;-66
2023/12/11 05:20:44;;;;;;;27.15;6.07;;;13.10;99.90;;;;;;4247310;28;20055;-67
2023/12/11 05:22:46;;;;;;;26.75;6.05;;;13.10;99.90;;;;;;4247511;28;20047;-66
2023/12/11 05:24:50;;;;;;;30.25;6.47;;;13.10;99.90;;;;;;4247103;28;20047;-67
2023/12/11 05:26:55;;;;;;;26.52;5.57;;;13.10;99.90;;;;;;4247450;28;20049;-67
2023/12/11 05:29:00;;;;;;;37.33;8.55;;;13.00;99.90;;;;;;4247376;28;20043;-67
2023/12/11 05:31:02;;;;;;;28.15;6.78;;;13.10;99.90;;;;;;4247922;27;20055;-66
2023/12/11 05:33:04;;;;;;;25.38;5.97;;;13.00;99.90;;;;;;4250757;27;20447;-67
2023/12/11 05:35:07;;;;;;;32.63;6.10;;;13.10;99.90;;;;;;4250575;27;20043;-66
2023/12/11 05:37:09;;;;;;;30.27;6.65;;;13.10;99.90;;;;;;4232329;28;20073;-66
2023/12/11 05:39:11;;;;;;;29.00;6.53;;;13.10;99.90;;;;;;4250399;27;20470;-66
2023/12/11 05:41:14;;;;;;;29.38;5.63;;;13.10;99.90;;;;;;4250615;27;20047;-66
2023/12/11 05:43:17;;;;;;;27.83;5.63;;;13.10;99.90;;;;;;4250522;27;20047;-66
2023/12/11 05:45:19;;;;;;;31.10;6.03;;;13.10;99.90;;;;;;4250594;27;20410;-66
2023/12/11 05:47:21;;;;;;;33.83;6.57;;;13.20;99.90;;;;;;4232130;28;20106;-66
2023/12/11 05:49:23;;;;;;;26.67;6.38;;;13.20;99.90;;;;;;4250755;27;20470;-68
2023/12/11 05:51:27;;;;;;;25.65;5.32;;;13.20;99.90;;;;;;4250451;27;20043;-66
2023/12/11 05:53:29;;;;;;;29.63;7.10;;;13.20;99.90;;;;;;4231697;28;20054;-66
2023/12/11 05:55:32;;;;;;;29.35;6.90;;;13.20;99.90;;;;;;4250531;27;20049;-66
2023/12/11 05:57:34;;;;;;;23.25;6.13;;;13.20;99.90;;;;;;4231863;28;20047;-66
2023/12/11 05:59:37;;;;;;;21.52;5.82;;;13.20;99.90;;;;;;4250443;27;20043;-68
2023/12/11 06:01:39;;;;;;;29.75;6.18;;;13.30;99.90;;;;;;4250379;27;20411;-67
2023/12/11 06:03:42;;;;;;;22.08;5.82;;;13.30;99.90;;;;;;4250342;27;20051;-66
2023/12/11 06:05:44;;;;;;;30.42;6.65;;;13.30;99.90;;;;;;4250248;27;20047;-66
2023/12/11 06:07:46;;;;;;;31.00;7.00;;;13.20;99.90;;;;;;4250385;27;20047;-67
2023/12/11 06:09:49;;;;;;;31.30;5.80;;;13.20;99.90;;;;;;4250119;27;20494;-67
2023/12/11 06:11:51;;;;;;;29.15;6.93;;;13.20;99.90;;;;;;4250588;27;20051;-67
2023/12/11 06:13:53;;;;;;;21.92;6.03;;;13.20;99.90;;;;;;4250352;27;20083;-66
2023/12/11 06:15:56;;;;;;;27.90;5.90;;;13.30;99.90;;;;;;4250304;27;20478;-66
2023/12/11 06:17:58;;;;;;;29.33;6.57;;;13.20;99.90;;;;;;4250147;27;20552;-66
2023/12/11 06:20:01;;;;;;;24.85;5.95;;;13.20;99.90;;;;;;4250036;27;20054;-66
2023/12/11 06:22:03;;;;;;;28.58;6.30;;;13.20;99.90;;;;;;4249770;27;20043;-67
2023/12/11 06:24:06;;;;;;;34.35;6.65;;;13.20;99.90;;;;;;4249725;27;20116;-67
2023/12/11 06:26:08;;;;;;;26.23;6.70;;;13.20;99.90;;;;;;4249951;27;20055;-67
2023/12/11 06:28:10;;;;;;;35.53;7.10;;;13.20;99.90;;;;;;4249906;27;20054;-67
2023/12/11 06:30:14;;;;;;;36.20;6.97;;;13.20;99.90;;;;;;4249970;27;20051;-67
2023/12/11 06:32:18;;;;;;;27.92;7.15;;;13.20;99.90;;;;;;4249722;27;20047;-67
2023/12/11 06:34:20;;;;;;;28.40;7.05;;;13.20;99.90;;;;;;4249716;27;20051;-67
2023/12/11 06:36:23;;;;;;;30.80;6.38;;;13.10;99.90;;;;;;4231563;28;20445;-66
2023/12/11 06:38:25;;;;;;;31.75;6.35;;;13.10;99.90;;;;;;4249376;27;20054;-67
2023/12/11 06:40:27;;;;;;;25.73;5.95;;;13.10;99.90;;;;;;4249615;27;20126;-66
2023/12/11 06:42:36;;;;;;;27.98;6.57;;;13.10;99.90;;;;;;4249002;27;20047;-67
2023/12/11 06:44:38;;;;;;;26.08;6.25;;;13.10;99.90;;;;;;4249467;27;20043;-67
2023/12/11 06:46:40;;;;;;;27.77;5.72;;;13.10;99.90;;;;;;4249608;27;20055;-66
2023/12/11 06:48:44;;;;;;;33.95;7.40;;;13.00;99.90;;;;;;4249705;27;20070;-67
2023/12/11 06:50:46;;;;;;;33.00;6.45;;;13.10;99.90;;;;;;4249550;27;20043;-66
2023/12/11 06:52:48;;;;;;;30.70;7.38;;;13.10;99.90;;;;;;4249041;27;20047;-67
2023/12/11 06:54:51;;;;;;;31.33;6.35;;;13.10;99.90;;;;;;4249558;27;20049;-66
2023/12/11 06:56:56;;;;;;;32.67;7.05;;;13.10;99.90;;;;;;4249441;27;20047;-67
2023/12/11 06:59:02;;;;;;;28.60;6.75;;;13.10;99.90;;;;;;4250012;27;20104;-67
2023/12/11 07:01:08;;;;;;;25.90;5.30;;;13.10;99.90;;;;;;4231180;28;20071;-67
2023/12/11 07:03:11;;;;;;;24.95;6.05;;;13.10;99.90;;;;;;4249284;27;20043;-67
2023/12/11 07:05:15;;;;;;;31.02;7.15;;;13.10;99.90;;;;;;4249241;27;20043;-66
2023/12/11 07:07:18;;;;;;;26.33;6.15;;;13.10;99.90;;;;;;4249020;27;20040;-66
2023/12/11 07:09:20;;;;;;;33.50;7.47;;;13.10;99.90;;;;;;4249220;27;20043;-66
2023/12/11 07:11:24;;;;;;;27.20;6.13;;;13.20;99.90;;;;;;4249472;27;20096;-66
2023/12/11 07:13:26;;;;;;;32.22;6.97;;;13.10;99.90;;;;;;4249126;27;20151;-66
2023/12/11 07:15:28;;;;;;;37.70;6.85;;;13.10;99.90;;;;;;4249522;27;20083;-67
2023/12/11 07:17:30;;;;;;;30.02;7.40;;;13.10;99.90;;;;;;4249355;27;20043;-66
2023/12/11 07:19:37;;;;;;;28.13;6.07;;;13.10;99.90;;;;;;4249453;27;20398;-66
2023/12/11 07:21:43;;;;;;;30.38;6.95;;;13.10;99.90;;;;;;4248636;27;20066;-66
2023/12/11 07:23:48;;;;;;;28.55;5.75;;;13.00;99.90;;;;;;4249071;27;20047;-66
2023/12/11 07:25:50;;;;;;;33.22;6.78;;;13.00;99.90;;;;;;4249091;27;20130;-66
2023/12/11 07:27:52;;;;;;;27.58;8.10;;;13.00;99.90;;;;;;4249250;27;20447;-67
2023/12/11 07:29:54;;;;;;;24.73;6.32;;;13.00;99.90;;;;;;4248840;27;20533;-67
2023/12/11 07:31:56;;;;;;;27.67;7.30;;;13.00;99.90;;;;;;4248664;27;20043;-67
2023/12/11 07:33:58;;;;;;;26.67;6.32;;;13.00;99.90;;;;;;4249021;27;20086;-66
2023/12/11 07:36:02;;;;;;;29.88;6.22;;;13.00;99.90;;;;;;4248310;27;20164;-67
2023/12/11 07:38:06;;;;;;;20.58;4.88;;;13.00;99.90;;;;;;4230884;28;20043;-67
2023/12/11 07:40:09;;;;;;;35.97;8.13;;;13.00;99.90;;;;;;4248539;27;20054;-67
2023/12/11 07:42:13;;;;;;;25.38;5.85;;;13.00;99.90;;;;;;4248941;27;20466;-66
2023/12/11 07:44:15;;;;;;;27.88;6.13;;;13.00;99.90;;;;;;4249336;27;20043;-68
2023/12/11 07:46:17;;;;;;;35.08;6.80;;;13.00;99.90;;;;;;4249808;27;20066;-67
2023/12/11 07:48:20;;;;;;;29.40;6.20;;;13.00;99.90;;;;;;4250181;27;20129;-66
2023/12/11 07:50:22;;;;;;;33.95;6.75;;;13.00;99.90;;;;;;4249601;27;20047;-67
2023/12/11 07:52:27;;;;;;;29.23;6.43;;;13.00;99.90;;;;;;4249873;27;20066;-70
2023/12/11 07:54:30;;;;;;;31.55;6.80;;;13.00;99.90;;;;;;4231615;28;20054;-67
2023/12/11 07:56:32;;;;;;;29.10;6.72;;;13.00;99.90;;;;;;4248722;27;20043;-67
2023/12/11 07:58:35;;;;;;;25.88;6.57;;;13.00;99.90;;;;;;4248700;27;20107;-66
2023/12/11 08:00:37;;;;;;;28.40;6.43;;;12.90;99.90;;;;;;4248540;27;20070;-66
2023/12/11 08:02:39;;;;;;;32.88;6.65;;;12.90;99.90;;;;;;4248369;27;20059;-66
2023/12/11 08:04:41;;;;;;;30.73;7.20;;;12.90;99.90;;;;;;4247898;27;20039;-66
2023/12/11 08:06:44;;;;;;;31.02;6.13;;;12.90;99.90;;;;;;4248379;27;20047;-66
2023/12/11 08:08:46;;;;;;;36.33;7.10;;;12.90;99.90;;;;;;4248211;27;20047;-66
2023/12/11 08:10:49;;;;;;;30.20;6.80;;;12.90;99.90;;;;;;4248430;27;20090;-66
2023/12/11 08:12:51;;;;;;;28.58;6.50;;;12.80;99.90;;;;;;4248079;27;20070;-66
2023/12/11 08:14:54;;;;;;;30.08;6.03;;;12.80;99.90;;;;;;4248085;27;20054;-66
2023/12/11 08:16:56;;;;;;;18.67;4.72;;;13.00;99.90;;;;;;4248333;27;20054;-65
2023/12/11 08:18:58;;;;;;;23.90;6.63;;;13.30;99.90;;;;;;4247979;27;20378;-66
2023/12/11 08:21:00;;;;;;;26.52;7.15;;;13.60;99.90;;;;;;4247862;27;20043;-65
2023/12/11 08:23:02;;;;;;;25.58;5.53;;;13.70;99.90;;;;;;4248083;27;20047;-65
2023/12/11 08:25:06;;;;;;;31.67;6.55;;;13.90;99.90;;;;;;4248225;27;20050;-67
2023/12/11 08:27:10;;;;;;;28.30;5.97;;;13.70;99.90;;;;;;4248003;27;20050;-67
2023/12/11 08:29:12;;;;;;;28.98;6.85;;;13.40;99.90;;;;;;4249177;27;20404;-68
2023/12/11 08:31:15;;;;;;;28.67;6.38;;;13.30;99.90;;;;;;4249402;27;20043;-67
2023/12/11 08:33:18;;;;;;;27.98;7.03;;;13.30;99.90;;;;;;4247910;27;20057;-69
2023/12/11 08:35:20;;;;;;;28.55;6.70;;;13.20;99.90;;;;;;4247872;27;20047;-67
2023/12/11 08:37:22;;;;;;;33.15;6.97;;;13.20;99.90;;;;;;4247862;27;20123;-68
2023/12/11 08:39:24;;;;;;;32.78;7.72;;;13.10;99.90;;;;;;4247940;27;20513;-67
2023/12/11 08:41:27;;;;;;;34.85;7.07;;;13.10;99.90;;;;;;4247832;27;20054;-67
2023/12/11 08:43:30;;;;;;;26.35;6.78;;;13.10;99.90;;;;;;4229848;28;20122;-67
2023/12/11 08:45:34;;;;;;;27.17;6.63;;;13.10;99.90;;;;;;4247769;27;20051;-66
2023/12/11 08:47:36;;;;;;;31.90;6.20;;;13.10;99.90;;;;;;4247529;27;20043;-68
2023/12/11 08:49:41;;;;;;;28.23;6.68;;;13.00;99.90;;;;;;4248047;27;20047;-67
2023/12/11 08:51:43;;;;;;;30.80;6.20;;;12.90;99.90;;;;;;4247952;27;20047;-66
2023/12/11 08:53:45;;;;;;;34.40;6.57;;;12.90;99.90;;;;;;4247781;27;20423;-68
2023/12/11 08:55:49;;;;;;;34.38;7.97;;;12.90;99.90;;;;;;4248287;27;20069;-67
2023/12/11 08:57:51;;;;;;;38.55;6.50;;;12.80;99.90;;;;;;4229771;28;20058;-69
2023/12/11 08:59:55;;;;;;;28.95;6.75;;;12.80;99.90;;;;;;4248052;27;20134;-68
2023/12/11 09:01:57;;;;;;;32.15;7.30;;;12.80;99.90;;;;;;4247631;27;20043;-67
2023/12/11 09:04:00;;;;;;;35.72;8.10;;;12.80;99.90;;;;;;4247438;27;20055;-67
2023/12/11 09:06:02;;;;;;;37.33;8.48;;;12.80;99.90;;;;;;4247150;27;20043;-67
2023/12/11 09:08:04;;;;;;;25.90;6.28;;;12.80;99.90;;;;;;4247462;27;20478;-67
2023/12/11 09:10:08;;;;;;;33.63;7.50;;;12.80;99.90;;;;;;4247511;27;20126;-67
2023/12/11 09:12:10;;;;;;;28.40;6.72;;;12.80;99.90;;;;;;4247432;27;20043;-68
2023/12/11 09:14:32;;;;;;;24.98;6.47;;;12.80;99.90;;;;;;4247571;28;20417;-67
2023/12/11 09:16:35;;;;;;;27.77;5.88;;;12.80;99.90;;;;;;4246973;28;20039;-67
2023/12/11 09:18:37;;;;;;;30.20;6.53;;;12.80;99.90;;;;;;4247373;28;20066;-67
2023/12/11 09:20:40;;;;;;;40.97;8.30;;;12.80;99.90;;;;;;4247488;28;20070;-67
2023/12/11 09:22:42;;;;;;;25.67;6.35;;;12.80;99.90;;;;;;4247205;28;20058;-67
2023/12/11 09:24:44;;;;;;;31.63;6.57;;;12.80;99.90;;;;;;4247289;28;20054;-66
2023/12/11 09:26:46;;;;;;;35.15;7.22;;;12.80;99.90;;;;;;4247279;28;20047;-67
2023/12/11 09:28:49;;;;;;;35.35;7.40;;;12.80;99.90;;;;;;4247256;28;20510;-70
2023/12/11 09:30:53;;;;;;;27.73;7.72;;;12.70;99.90;;;;;;4247270;28;20073;-67
2023/12/11 09:32:57;;;;;;;35.10;7.70;;;12.70;99.90;;;;;;4247038;28;20043;-67
2023/12/11 09:34:59;;;;;;;30.63;8.20;;;12.70;99.90;;;;;;4247234;28;20126;-65
2023/12/11 09:37:01;;;;;;;33.47;7.72;;;12.70;99.90;;;;;;4247129;28;20480;-66
2023/12/11 09:39:04;;;;;;;34.60;8.00;;;12.70;99.90;;;;;;4228779;28;20050;-67
2023/12/11 09:41:07;;;;;;;28.38;7.88;;;12.70;99.90;;;;;;4247585;28;20043;-66
2023/12/11 09:43:09;;;;;;;33.03;8.35;;;12.70;99.90;;;;;;4247113;28;20380;-66
2023/12/11 09:45:13;;;;;;;33.30;8.13;;;12.70;99.90;;;;;;4247396;28;20093;-67
2023/12/11 09:47:19;;;;;;;28.33;7.07;;;12.70;99.90;;;;;;4246944;28;20049;-66
2023/12/11 09:49:23;;;;;;;29.75;7.53;;;12.60;99.90;;;;;;4247474;28;20047;-67
2023/12/11 09:51:30;;;;;;;31.38;7.53;;;12.70;99.90;;;;;;4247315;28;20040;-67
2023/12/11 09:53:35;;;;;;;25.38;6.97;;;12.70;99.90;;;;;;4247552;28;20047;-70
2023/12/11 09:55:38;;;;;;;31.67;7.60;;;12.70;99.90;;;;;;4229415;28;20055;-66
2023/12/11 09:57:41;;;;;;;46.53;10.15;;;12.60;99.90;;;;;;4247579;28;20390;-70
2023/12/11 09:59:43;;;;;;;41.95;9.35;;;12.60;99.90;;;;;;4247217;28;20134;-67
2023/12/11 10:01:47;;;;;;;35.70;7.88;;;12.60;99.90;;;;;;4246759;28;20071;-66
2023/12/11 10:03:49;;;;;;;28.92;7.07;;;12.70;99.90;;;;;;4246834;28;20043;-67
2023/12/11 10:05:57;;;;;;;35.03;7.63;;;12.70;99.90;;;;;;4246897;28;20073;-67
2023/12/11 10:08:00;;;;;;;33.63;7.72;;;12.70;99.90;;;;;;4228733;28;20052;-67
2023/12/11 10:10:22;;;;;;;34.55;8.07;;;12.70;99.90;;;;;;4246959;28;20043;-67
2023/12/11 10:12:24;;;;;;;34.75;8.10;;;12.70;99.90;;;;;;4246939;28;20076;-69
2023/12/11 10:14:28;;;;;;;31.67;8.05;;;12.70;99.90;;;;;;4246784;28;20503;-68
2023/12/11 10:16:32;;;;;;;28.48;8.35;;;12.70;99.90;;;;;;4246815;28;20081;-66
2023/12/11 10:18:47;;;;;;;38.63;10.32;;;12.80;99.90;;;;;;4248295;27;20047;-66
2023/12/11 10:20:58;;;;;;;39.33;11.18;;;12.80;99.90;;;;;;4249977;27;20482;-67
2023/12/11 10:23:11;;;;;;;35.70;11.10;;;12.80;99.90;;;;;;4250147;27;20074;-67
2023/12/11 10:25:24;;;;;;;45.20;12.30;;;12.80;99.90;;;;;;4250444;27;20043;-67
2023/12/11 10:27:26;;;;;;;39.92;10.27;;;12.80;99.90;;;;;;4250257;27;20127;-67
2023/12/11 10:29:32;;;;;;;46.35;9.82;;;12.90;99.90;;;;;;4250886;27;20482;-67
2023/12/11 10:31:35;;;;;;;;;;;12.90;99.90;;;;;;4252216;27;20047;-67
2023/12/11 10:33:50;;;;;;;34.45;8.27;;;12.90;99.90;;;;;;4233452;28;20006;-67